sensor_id;sensor_type;location;lat;lon;timestamp;pressure;altitude;pressure_sealevel;temperature;humidity
33625;BME280;19962;47.820;1.930;2023-08-06T00:00:29;100242.19;;;18.22;74.09
33625;BME280;19962;47.820;1.930;2023-08-06T00:02:56;100238.06;;;18.15;74.60
33625;BME280;19962;47.820;1.930;2023-08-06T00:05:22;100236.66;;;18.17;74.61
33625;BME280;19962;47.820;1.930;2023-08-06T00:07:49;100249.72;;;18.17;74.34
33625;BME280;19962;47.820;1.930;2023-08-06T00:10:15;100258.28;;;18.20;74.74
33625;BME280;19962;47.820;1.930;2023-08-06T00:12:42;100257.72;;;18.23;74.86
33625;BME280;19962;47.820;1.930;2023-08-06T00:15:08;100249.69;;;18.22;75.28
33625;BME280;19962;47.820;1.930;2023-08-06T00:17:35;100248.31;;;18.19;75.54
33625;BME280;19962;47.820;1.930;2023-08-06T00:20:02;100262.19;;;18.19;75.32
33625;BME280;19962;47.820;1.930;2023-08-06T00:22:33;100259.41;;;18.19;75.54
33625;BME280;19962;47.820;1.930;2023-08-06T00:24:59;100257.72;;;18.23;75.53
33625;BME280;19962;47.820;1.930;2023-08-06T00:27:25;100253.31;;;18.22;75.26
33625;BME280;19962;47.820;1.930;2023-08-06T00:29:52;100249.97;;;18.20;75.34
33625;BME280;19962;47.820;1.930;2023-08-06T00:32:18;100247.22;;;18.15;75.81
33625;BME280;19962;47.820;1.930;2023-08-06T00:34:44;100248.88;;;18.16;75.85
33625;BME280;19962;47.820;1.930;2023-08-06T00:37:10;100250.53;;;18.17;75.70
33625;BME280;19962;47.820;1.930;2023-08-06T00:39:37;100250.53;;;18.22;75.12
33625;BME280;19962;47.820;1.930;2023-08-06T00:42:03;100259.69;;;18.18;75.26
33625;BME280;19962;47.820;1.930;2023-08-06T00:44:29;100267.19;;;18.22;75.32
33625;BME280;19962;47.820;1.930;2023-08-06T00:46:56;100259.16;;;18.16;74.95
33625;BME280;19962;47.820;1.930;2023-08-06T00:49:22;100268.88;;;18.13;74.88
33625;BME280;19962;47.820;1.930;2023-08-06T00:51:49;100277.75;;;18.15;74.76
33625;BME280;19962;47.820;1.930;2023-08-06T00:54:15;100280.84;;;18.09;74.93
33625;BME280;19962;47.820;1.930;2023-08-06T00:56:42;100284.50;;;17.99;75.12
33625;BME280;19962;47.820;1.930;2023-08-06T00:59:10;100286.19;;;17.95;75.48
33625;BME280;19962;47.820;1.930;2023-08-06T01:01:36;100288.13;;;18.00;75.55
33625;BME280;19962;47.820;1.930;2023-08-06T01:04:03;100297.59;;;17.94;75.83
33625;BME280;19962;47.820;1.930;2023-08-06T01:07:01;100300.34;;;17.99;76.01
33625;BME280;19962;47.820;1.930;2023-08-06T01:13:05;100303.97;;;17.94;75.97
33625;BME280;19962;47.820;1.930;2023-08-06T01:15:43;100303.41;;;17.97;76.04
33625;BME280;19962;47.820;1.930;2023-08-06T01:18:11;100305.06;;;17.98;76.08
33625;BME280;19962;47.820;1.930;2023-08-06T01:20:37;100300.59;;;18.02;76.40
33625;BME280;19962;47.820;1.930;2023-08-06T01:23:04;100307.53;;;18.05;76.17
33625;BME280;19962;47.820;1.930;2023-08-06T01:26:26;100320.03;;;18.02;76.91
33625;BME280;19962;47.820;1.930;2023-08-06T01:28:52;100321.97;;;18.02;76.84
33625;BME280;19962;47.820;1.930;2023-08-06T01:32:00;100328.63;;;18.01;76.94
33625;BME280;19962;47.820;1.930;2023-08-06T01:34:23;100333.38;;;17.95;77.49
33625;BME280;19962;47.820;1.930;2023-08-06T01:36:51;100327.25;;;17.98;77.44
33625;BME280;19962;47.820;1.930;2023-08-06T01:39:18;100336.16;;;18.00;77.78
33625;BME280;19962;47.820;1.930;2023-08-06T01:41:47;100336.72;;;17.97;77.74
33625;BME280;19962;47.820;1.930;2023-08-06T01:44:14;100336.16;;;17.95;77.94
33625;BME280;19962;47.820;1.930;2023-08-06T01:46:40;100329.22;;;17.98;78.18
33625;BME280;19962;47.820;1.930;2023-08-06T01:49:06;100338.09;;;17.95;78.38
33625;BME280;19962;47.820;1.930;2023-08-06T01:51:33;100340.03;;;17.94;78.67
33625;BME280;19962;47.820;1.930;2023-08-06T01:53:59;100345.56;;;17.99;78.94
33625;BME280;19962;47.820;1.930;2023-08-06T01:56:25;100341.69;;;18.00;78.61
33625;BME280;19962;47.820;1.930;2023-08-06T01:58:51;100341.69;;;18.00;78.84
33625;BME280;19962;47.820;1.930;2023-08-06T02:01:17;100338.63;;;18.02;79.11
33625;BME280;19962;47.820;1.930;2023-08-06T02:03:43;100338.09;;;18.00;78.86
33625;BME280;19962;47.820;1.930;2023-08-06T02:06:09;100338.94;;;18.00;78.99
33625;BME280;19962;47.820;1.930;2023-08-06T02:08:36;100340.59;;;17.96;78.88
33625;BME280;19962;47.820;1.930;2023-08-06T02:11:02;100338.38;;;17.93;78.76
33625;BME280;19962;47.820;1.930;2023-08-06T02:13:28;100339.50;;;17.92;79.08
33625;BME280;19962;47.820;1.930;2023-08-06T02:15:54;100338.09;;;17.95;78.83
33625;BME280;19962;47.820;1.930;2023-08-06T02:18:20;100340.03;;;17.94;79.00
33625;BME280;19962;47.820;1.930;2023-08-06T02:20:59;100335.34;;;17.95;78.84
33625;BME280;19962;47.820;1.930;2023-08-06T02:23:27;100342.53;;;17.96;78.98
33625;BME280;19962;47.820;1.930;2023-08-06T02:26:03;100340.59;;;17.96;79.58
33625;BME280;19962;47.820;1.930;2023-08-06T02:28:30;100339.75;;;17.96;79.27
33625;BME280;19962;47.820;1.930;2023-08-06T02:30:56;100333.38;;;17.95;79.19
33625;BME280;19962;47.820;1.930;2023-08-06T02:33:23;100331.75;;;17.89;79.55
33625;BME280;19962;47.820;1.930;2023-08-06T02:35:49;100344.22;;;17.92;79.83
33625;BME280;19962;47.820;1.930;2023-08-06T02:38:15;100352.53;;;17.92;79.99
33625;BME280;19962;47.820;1.930;2023-08-06T02:40:45;100357.81;;;17.93;80.22
33625;BME280;19962;47.820;1.930;2023-08-06T02:43:12;100364.47;;;17.92;80.34
33625;BME280;19962;47.820;1.930;2023-08-06T02:45:38;100362.84;;;17.91;80.32
33625;BME280;19962;47.820;1.930;2023-08-06T02:48:04;100361.72;;;17.92;80.22
33625;BME280;19962;47.820;1.930;2023-08-06T02:50:31;100365.03;;;17.94;80.52
33625;BME280;19962;47.820;1.930;2023-08-06T02:52:57;100371.16;;;17.91;80.50
33625;BME280;19962;47.820;1.930;2023-08-06T02:55:23;100372.25;;;17.90;80.94
33625;BME280;19962;47.820;1.930;2023-08-06T02:57:49;100366.19;;;17.78;81.58
33625;BME280;19962;47.820;1.930;2023-08-06T03:00:15;100369.50;;;17.80;81.81
33625;BME280;19962;47.820;1.930;2023-08-06T03:02:42;100370.91;;;17.78;82.23
33625;BME280;19962;47.820;1.930;2023-08-06T03:05:08;100386.72;;;17.77;82.62
33625;BME280;19962;47.820;1.930;2023-08-06T03:07:34;100391.16;;;17.78;82.86
33625;BME280;19962;47.820;1.930;2023-08-06T03:10:02;100407.84;;;17.73;83.34
33625;BME280;19962;47.820;1.930;2023-08-06T03:12:28;100401.72;;;17.66;84.05
33625;BME280;19962;47.820;1.930;2023-08-06T03:14:54;100399.50;;;17.68;84.32
33625;BME280;19962;47.820;1.930;2023-08-06T03:17:20;100398.69;;;17.68;84.74
33625;BME280;19962;47.820;1.930;2023-08-06T03:19:46;100401.72;;;17.66;84.69
33625;BME280;19962;47.820;1.930;2023-08-06T03:22:12;100393.69;;;17.65;84.92
33625;BME280;19962;47.820;1.930;2023-08-06T03:24:38;100404.53;;;17.56;85.72
33625;BME280;19962;47.820;1.930;2023-08-06T03:27:05;100391.75;;;17.60;85.73
33625;BME280;19962;47.820;1.930;2023-08-06T03:29:31;100377.59;;;17.57;86.13
33625;BME280;19962;47.820;1.930;2023-08-06T03:31:57;100377.31;;;17.58;85.87
33625;BME280;19962;47.820;1.930;2023-08-06T03:34:23;100376.22;;;17.54;86.51
33625;BME280;19962;47.820;1.930;2023-08-06T03:36:49;100372.91;;;17.52;86.58
33625;BME280;19962;47.820;1.930;2023-08-06T03:39:16;100376.50;;;17.58;86.42
33625;BME280;19962;47.820;1.930;2023-08-06T03:41:42;100385.91;;;17.57;86.50
33625;BME280;19962;47.820;1.930;2023-08-06T03:44:08;100376.81;;;17.51;86.56
33625;BME280;19962;47.820;1.930;2023-08-06T03:46:34;100380.13;;;17.48;86.78
33625;BME280;19962;47.820;1.930;2023-08-06T03:49:01;100383.44;;;17.50;86.76
33625;BME280;19962;47.820;1.930;2023-08-06T03:51:27;100390.66;;;17.51;87.03
33625;BME280;19962;47.820;1.930;2023-08-06T03:53:53;100388.97;;;17.50;86.74
33625;BME280;19962;47.820;1.930;2023-08-06T03:56:19;100384.03;;;17.42;87.08
33625;BME280;19962;47.820;1.930;2023-08-06T03:58:45;100394.28;;;17.42;86.57
33625;BME280;19962;47.820;1.930;2023-08-06T04:01:12;100397.59;;;17.43;86.10
33625;BME280;19962;47.820;1.930;2023-08-06T04:03:38;100400.09;;;17.45;85.78
33625;BME280;19962;47.820;1.930;2023-08-06T04:06:04;100403.09;;;17.38;85.80
33625;BME280;19962;47.820;1.930;2023-08-06T04:08:30;100414.47;;;17.37;86.24
33625;BME280;19962;47.820;1.930;2023-08-06T04:10:57;100415.03;;;17.34;86.36
33625;BME280;19962;47.820;1.930;2023-08-06T04:13:23;100417.81;;;17.29;86.09
33625;BME280;19962;47.820;1.930;2023-08-06T04:15:50;100424.47;;;17.23;85.38
33625;BME280;19962;47.820;1.930;2023-08-06T04:18:16;100430.31;;;17.26;85.79
33625;BME280;19962;47.820;1.930;2023-08-06T04:20:46;100430.28;;;17.16;86.06
33625;BME280;19962;47.820;1.930;2023-08-06T04:23:12;100430.56;;;17.20;85.77
33625;BME280;19962;47.820;1.930;2023-08-06T04:25:38;100439.44;;;17.17;85.83
33625;BME280;19962;47.820;1.930;2023-08-06T04:28:05;100450.53;;;17.22;85.42
33625;BME280;19962;47.820;1.930;2023-08-06T04:30:31;100450.53;;;17.22;85.30
33625;BME280;19962;47.820;1.930;2023-08-06T04:32:58;100461.63;;;17.22;85.05
33625;BME280;19962;47.820;1.930;2023-08-06T04:35:24;100465.50;;;17.21;85.54
33625;BME280;19962;47.820;1.930;2023-08-06T04:37:50;100469.38;;;17.20;85.33
33625;BME280;19962;47.820;1.930;2023-08-06T04:40:16;100459.38;;;17.14;85.88
33625;BME280;19962;47.820;1.930;2023-08-06T04:42:43;100462.16;;;17.19;86.01
33625;BME280;19962;47.820;1.930;2023-08-06T04:45:09;100463.28;;;17.23;85.74
33625;BME280;19962;47.820;1.930;2023-08-06T04:47:35;100464.38;;;17.17;85.76
33625;BME280;19962;47.820;1.930;2023-08-06T04:50:01;100479.09;;;17.17;86.01
33625;BME280;19962;47.820;1.930;2023-08-06T04:52:27;100494.88;;;17.22;85.92
33625;BME280;19962;47.820;1.930;2023-08-06T04:54:54;100491.00;;;17.23;85.57
33625;BME280;19962;47.820;1.930;2023-08-06T04:57:20;100482.13;;;17.21;86.07
33625;BME280;19962;47.820;1.930;2023-08-06T04:59:47;100491.00;;;17.23;85.71
33625;BME280;19962;47.820;1.930;2023-08-06T05:02:13;100496.84;;;17.26;85.62
33625;BME280;19962;47.820;1.930;2023-08-06T05:04:39;100498.78;;;17.26;85.87
33625;BME280;19962;47.820;1.930;2023-08-06T05:07:06;100489.91;;;17.29;85.72
33625;BME280;19962;47.820;1.930;2023-08-06T05:09:32;100506.56;;;17.29;85.75
33625;BME280;19962;47.820;1.930;2023-08-06T05:12:01;100508.22;;;17.30;85.66
33625;BME280;19962;47.820;1.930;2023-08-06T05:14:27;100507.94;;;17.26;85.74
33625;BME280;19962;47.820;1.930;2023-08-06T05:16:53;100509.88;;;17.26;85.14
33625;BME280;19962;47.820;1.930;2023-08-06T05:19:20;100509.88;;;17.26;85.38
33625;BME280;19962;47.820;1.930;2023-08-06T05:21:46;100506.56;;;17.29;85.44
33625;BME280;19962;47.820;1.930;2023-08-06T05:24:12;100507.63;;;17.28;85.48
33625;BME280;19962;47.820;1.930;2023-08-06T05:26:38;100519.84;;;17.22;85.41
33625;BME280;19962;47.820;1.930;2023-08-06T05:29:04;100519.00;;;17.21;85.42
33625;BME280;19962;47.820;1.930;2023-08-06T05:31:30;100515.69;;;17.19;85.56
33625;BME280;19962;47.820;1.930;2023-08-06T05:33:56;100519.31;;;17.30;85.34
33625;BME280;19962;47.820;1.930;2023-08-06T05:36:22;100528.75;;;17.29;85.04
33625;BME280;19962;47.820;1.930;2023-08-06T05:38:49;100527.09;;;17.33;84.87
33625;BME280;19962;47.820;1.930;2023-08-06T05:41:15;100528.75;;;17.39;84.78
33625;BME280;19962;47.820;1.930;2023-08-06T05:43:41;100539.00;;;17.38;84.77
33625;BME280;19962;47.820;1.930;2023-08-06T05:46:07;100560.94;;;17.45;84.75
33625;BME280;19962;47.820;1.930;2023-08-06T05:48:33;100559.56;;;17.48;84.11
33625;BME280;19962;47.820;1.930;2023-08-06T05:50:59;100558.75;;;17.47;83.88
33625;BME280;19962;47.820;1.930;2023-08-06T05:53:25;100567.63;;;17.49;83.98
33625;BME280;19962;47.820;1.930;2023-08-06T05:55:51;100563.19;;;17.43;84.06
33625;BME280;19962;47.820;1.930;2023-08-06T05:58:17;100561.78;;;17.46;84.02
33625;BME280;19962;47.820;1.930;2023-08-06T06:00:45;100565.09;;;17.42;84.32
33625;BME280;19962;47.820;1.930;2023-08-06T06:03:12;100567.06;;;17.42;84.59
33625;BME280;19962;47.820;1.930;2023-08-06T06:05:38;100567.06;;;17.42;84.73
33625;BME280;19962;47.820;1.930;2023-08-06T06:08:05;100568.72;;;17.43;84.83
33625;BME280;19962;47.820;1.930;2023-08-06T06:10:31;100566.22;;;17.52;84.57
33625;BME280;19962;47.820;1.930;2023-08-06T06:12:57;100566.50;;;17.45;84.60
33625;BME280;19962;47.820;1.930;2023-08-06T06:15:23;100578.16;;;17.52;84.15
33625;BME280;19962;47.820;1.930;2023-08-06T06:17:49;100581.50;;;17.54;84.25
33625;BME280;19962;47.820;1.930;2023-08-06T06:20:15;100589.28;;;17.57;84.29
33625;BME280;19962;47.820;1.930;2023-08-06T06:22:41;100587.31;;;17.52;84.11
33625;BME280;19962;47.820;1.930;2023-08-06T06:25:08;100596.47;;;17.53;83.75
33625;BME280;19962;47.820;1.930;2023-08-06T06:27:35;100594.28;;;17.60;83.41
33625;BME280;19962;47.820;1.930;2023-08-06T06:30:01;100598.44;;;17.68;83.66
33625;BME280;19962;47.820;1.930;2023-08-06T06:32:27;100605.38;;;17.75;83.71
33625;BME280;19962;47.820;1.930;2023-08-06T06:34:54;100608.75;;;17.87;83.10
33625;BME280;19962;47.820;1.930;2023-08-06T06:37:20;100602.59;;;17.90;82.72
33625;BME280;19962;47.820;1.930;2023-08-06T06:39:46;100602.34;;;17.77;82.48
33625;BME280;19962;47.820;1.930;2023-08-06T06:42:12;100599.56;;;17.92;82.22
33625;BME280;19962;47.820;1.930;2023-08-06T06:44:40;100594.84;;;17.97;81.95
33625;BME280;19962;47.820;1.930;2023-08-06T06:47:07;100599.56;;;17.87;81.92
33625;BME280;19962;47.820;1.930;2023-08-06T06:49:33;100596.53;;;17.88;81.80
33625;BME280;19962;47.820;1.930;2023-08-06T06:51:59;100608.44;;;17.84;81.76
33625;BME280;19962;47.820;1.930;2023-08-06T06:54:25;100612.06;;;17.94;81.38
33625;BME280;19962;47.820;1.930;2023-08-06T06:56:51;100610.41;;;17.83;81.63
33625;BME280;19962;47.820;1.930;2023-08-06T06:59:17;100613.16;;;17.93;81.22
33625;BME280;19962;47.820;1.930;2023-08-06T07:01:43;100609.84;;;18.01;81.17
33625;BME280;19962;47.820;1.930;2023-08-06T07:04:09;100615.94;;;18.03;80.71
33625;BME280;19962;47.820;1.930;2023-08-06T07:06:35;100615.66;;;18.15;80.38
33625;BME280;19962;47.820;1.930;2023-08-06T07:09:01;100617.03;;;18.17;79.93
33625;BME280;19962;47.820;1.930;2023-08-06T07:11:28;100612.34;;;18.13;80.08
33625;BME280;19962;47.820;1.930;2023-08-06T07:13:58;100623.16;;;18.19;79.54
33625;BME280;19962;47.820;1.930;2023-08-06T07:16:25;100627.88;;;18.09;79.70
33625;BME280;19962;47.820;1.930;2023-08-06T07:18:53;100635.94;;;18.25;79.54
33625;BME280;19962;47.820;1.930;2023-08-06T07:21:19;100635.94;;;18.35;78.91
33625;BME280;19962;47.820;1.930;2023-08-06T07:23:46;100630.38;;;18.30;78.53
33625;BME280;19962;47.820;1.930;2023-08-06T07:26:12;100632.09;;;18.36;78.94
33625;BME280;19962;47.820;1.930;2023-08-06T07:28:38;100640.94;;;18.23;79.21
33625;BME280;19962;47.820;1.930;2023-08-06T07:31:04;100643.72;;;18.18;79.58
33625;BME280;19962;47.820;1.930;2023-08-06T07:33:30;100641.78;;;18.09;79.64
33625;BME280;19962;47.820;1.930;2023-08-06T07:35:56;100649.81;;;18.05;79.60
33625;BME280;19962;47.820;1.930;2023-08-06T07:38:22;100643.44;;;18.00;79.39
33625;BME280;19962;47.820;1.930;2023-08-06T07:40:49;100645.94;;;18.01;79.30
33625;BME280;19962;47.820;1.930;2023-08-06T07:43:15;100649.84;;;18.00;79.25
33625;BME280;19962;47.820;1.930;2023-08-06T07:45:41;100650.09;;;18.09;79.17
33625;BME280;19962;47.820;1.930;2023-08-06T07:48:07;100644.00;;;18.22;78.60
33625;BME280;19962;47.820;1.930;2023-08-06T07:50:33;100641.50;;;18.20;78.35
33625;BME280;19962;47.820;1.930;2023-08-06T07:52:59;100649.56;;;18.22;78.38
33625;BME280;19962;47.820;1.930;2023-08-06T07:55:26;100649.25;;;18.03;77.77
33625;BME280;19962;47.820;1.930;2023-08-06T07:57:52;100647.88;;;18.11;77.40
33625;BME280;19962;47.820;1.930;2023-08-06T08:00:18;100659.00;;;18.21;77.47
33625;BME280;19962;47.820;1.930;2023-08-06T08:02:45;100659.25;;;18.29;77.02
33625;BME280;19962;47.820;1.930;2023-08-06T08:05:12;100659.84;;;18.31;77.00
33625;BME280;19962;47.820;1.930;2023-08-06T08:07:38;100659.59;;;18.43;76.09
33625;BME280;19962;47.820;1.930;2023-08-06T08:10:04;100659.84;;;18.51;75.88
33625;BME280;19962;47.820;1.930;2023-08-06T08:12:31;100664.25;;;18.62;75.98
33625;BME280;19962;47.820;1.930;2023-08-06T08:14:57;100661.47;;;18.62;75.48
33625;BME280;19962;47.820;1.930;2023-08-06T08:17:23;100671.50;;;18.58;75.31
33625;BME280;19962;47.820;1.930;2023-08-06T08:19:49;100680.41;;;18.40;74.81
33625;BME280;19962;47.820;1.930;2023-08-06T08:22:15;100673.19;;;18.39;74.68
33625;BME280;19962;47.820;1.930;2023-08-06T08:24:41;100678.72;;;18.39;74.52
33625;BME280;19962;47.820;1.930;2023-08-06T08:27:07;100683.19;;;18.45;74.33
33625;BME280;19962;47.820;1.930;2023-08-06T08:29:33;100676.78;;;18.45;73.94
33625;BME280;19962;47.820;1.930;2023-08-06T08:32:00;100680.38;;;18.60;73.43
33625;BME280;19962;47.820;1.930;2023-08-06T08:34:26;100685.63;;;18.77;73.27
33625;BME280;19962;47.820;1.930;2023-08-06T08:36:52;100684.50;;;18.93;72.63
33625;BME280;19962;47.820;1.930;2023-08-06T08:39:18;100683.44;;;18.79;72.52
33625;BME280;19962;47.820;1.930;2023-08-06T08:41:44;100694.53;;;18.89;72.09
33625;BME280;19962;47.820;1.930;2023-08-06T08:44:11;100678.91;;;19.03;71.17
33625;BME280;19962;47.820;1.930;2023-08-06T08:46:41;100687.00;;;18.94;70.20
33625;BME280;19962;47.820;1.930;2023-08-06T08:49:08;100683.94;;;18.91;70.00
33625;BME280;19962;47.820;1.930;2023-08-06T08:51:35;100685.09;;;18.75;70.03
33625;BME280;19962;47.820;1.930;2023-08-06T08:54:03;100683.13;;;18.75;69.99
33625;BME280;19962;47.820;1.930;2023-08-06T08:56:30;100687.03;;;18.74;69.96
33625;BME280;19962;47.820;1.930;2023-08-06T08:58:57;100693.13;;;18.86;69.85
33625;BME280;19962;47.820;1.930;2023-08-06T09:01:23;100688.69;;;18.85;69.92
33625;BME280;19962;47.820;1.930;2023-08-06T09:03:50;100680.09;;;18.77;70.32
33625;BME280;19962;47.820;1.930;2023-08-06T09:06:18;100677.56;;;18.95;69.96
33625;BME280;19962;47.820;1.930;2023-08-06T09:08:56;100682.78;;;19.07;69.37
33625;BME280;19962;47.820;1.930;2023-08-06T09:11:26;100688.91;;;19.09;68.90
33625;BME280;19962;47.820;1.930;2023-08-06T09:13:54;100684.19;;;19.09;68.24
33625;BME280;19962;47.820;1.930;2023-08-06T09:16:21;100692.53;;;19.09;68.29
33625;BME280;19962;47.820;1.930;2023-08-06T09:18:47;100698.91;;;19.15;68.17
33625;BME280;19962;47.820;1.930;2023-08-06T09:21:14;100699.19;;;19.13;68.77
33625;BME280;19962;47.820;1.930;2023-08-06T09:23:42;100701.97;;;19.23;68.50
33625;BME280;19962;47.820;1.930;2023-08-06T09:26:12;100703.06;;;19.17;68.12
33625;BME280;19962;47.820;1.930;2023-08-06T09:28:39;100698.06;;;19.24;68.13
33625;BME280;19962;47.820;1.930;2023-08-06T09:31:09;100698.00;;;19.44;68.07
33625;BME280;19962;47.820;1.930;2023-08-06T09:33:37;100707.72;;;19.47;68.08
33625;BME280;19962;47.820;1.930;2023-08-06T09:36:10;100709.75;;;19.21;68.61
33625;BME280;19962;47.820;1.930;2023-08-06T09:38:40;100696.72;;;18.97;69.37
33625;BME280;19962;47.820;1.930;2023-08-06T09:41:07;100702.00;;;18.93;69.42
33625;BME280;19962;47.820;1.930;2023-08-06T09:43:43;100709.81;;;18.81;69.46
33625;BME280;19962;47.820;1.930;2023-08-06T09:46:13;100715.13;;;18.83;69.36
33625;BME280;19962;47.820;1.930;2023-08-06T09:48:40;100720.09;;;19.01;68.81
33625;BME280;19962;47.820;1.930;2023-08-06T09:51:08;100714.72;;;19.19;67.65
33625;BME280;19962;47.820;1.930;2023-08-06T09:53:37;100722.53;;;19.22;66.48
33625;BME280;19962;47.820;1.930;2023-08-06T09:56:04;100714.50;;;19.11;65.80
33625;BME280;19962;47.820;1.930;2023-08-06T09:58:31;100728.13;;;19.02;65.90
33625;BME280;19962;47.820;1.930;2023-08-06T10:00:59;100721.19;;;19.05;65.86
33625;BME280;19962;47.820;1.930;2023-08-06T10:03:26;100715.88;;;19.23;65.11
33625;BME280;19962;47.820;1.930;2023-08-06T10:05:55;100726.38;;;19.41;63.58
33625;BME280;19962;47.820;1.930;2023-08-06T10:08:21;100718.25;;;19.55;62.20
33625;BME280;19962;47.820;1.930;2023-08-06T10:10:48;100732.69;;;19.62;61.62
33625;BME280;19962;47.820;1.930;2023-08-06T10:13:14;100733.84;;;19.56;61.42
33625;BME280;19962;47.820;1.930;2023-08-06T10:15:42;100740.28;;;19.41;61.74
33625;BME280;19962;47.820;1.930;2023-08-06T10:18:08;100734.72;;;19.41;62.04
33625;BME280;19962;47.820;1.930;2023-08-06T10:20:35;100742.16;;;19.61;61.58
33625;BME280;19962;47.820;1.930;2023-08-06T10:23:03;100740.22;;;19.61;61.11
33625;BME280;19962;47.820;1.930;2023-08-06T10:25:34;100750.25;;;19.57;60.59
33625;BME280;19962;47.820;1.930;2023-08-06T10:28:07;100752.00;;;19.38;61.26
33625;BME280;19962;47.820;1.930;2023-08-06T10:30:35;100753.09;;;19.37;61.88
33625;BME280;19962;47.820;1.930;2023-08-06T10:33:06;100741.63;;;19.49;62.21
33625;BME280;19962;47.820;1.930;2023-08-06T10:35:47;100747.00;;;19.35;62.37
33625;BME280;19962;47.820;1.930;2023-08-06T10:38:22;100743.56;;;19.58;62.06
33625;BME280;19962;47.820;1.930;2023-08-06T10:43:35;100742.03;;;19.91;59.70
33625;BME280;19962;47.820;1.930;2023-08-06T10:46:10;100733.84;;;20.14;59.24
33625;BME280;19962;47.820;1.930;2023-08-06T10:48:38;100743.78;;;20.25;58.60
33625;BME280;19962;47.820;1.930;2023-08-06T10:51:08;100740.63;;;20.37;57.69
33625;BME280;19962;47.820;1.930;2023-08-06T10:53:34;100746.56;;;20.25;57.15
33625;BME280;19962;47.820;1.930;2023-08-06T10:56:01;100748.84;;;20.18;57.24
33625;BME280;19962;47.820;1.930;2023-08-06T10:58:34;100743.31;;;20.08;56.00
33625;BME280;19962;47.820;1.930;2023-08-06T11:01:00;100740.66;;;20.32;57.12
33625;BME280;19962;47.820;1.930;2023-08-06T11:03:27;100737.50;;;20.43;56.08
33625;BME280;19962;47.820;1.930;2023-08-06T11:05:54;100745.78;;;20.53;56.05
33625;BME280;19962;47.820;1.930;2023-08-06T11:08:26;100740.22;;;20.53;54.76
33625;BME280;19962;47.820;1.930;2023-08-06T11:10:53;100734.16;;;20.46;54.92
33625;BME280;19962;47.820;1.930;2023-08-06T11:13:20;100739.81;;;20.36;54.88
33625;BME280;19962;47.820;1.930;2023-08-06T11:15:46;100738.28;;;20.15;54.64
33625;BME280;19962;47.820;1.930;2023-08-06T11:18:12;100743.59;;;20.12;54.75
33625;BME280;19962;47.820;1.930;2023-08-06T11:20:39;100749.44;;;20.15;54.70
33625;BME280;19962;47.820;1.930;2023-08-06T11:23:06;100752.16;;;20.20;54.82
33625;BME280;19962;47.820;1.930;2023-08-06T11:25:44;100748.28;;;20.16;53.61
33625;BME280;19962;47.820;1.930;2023-08-06T11:28:11;100753.50;;;20.28;52.55
33625;BME280;19962;47.820;1.930;2023-08-06T11:30:37;100746.31;;;20.22;51.41
33625;BME280;19962;47.820;1.930;2023-08-06T11:33:03;100738.75;;;20.27;51.75
33625;BME280;19962;47.820;1.930;2023-08-06T11:35:35;100750.31;;;20.44;52.96
33625;BME280;19962;47.820;1.930;2023-08-06T11:38:02;100748.16;;;20.36;52.39
33625;BME280;19962;47.820;1.930;2023-08-06T11:40:29;100751.19;;;20.40;52.25
33625;BME280;19962;47.820;1.930;2023-08-06T11:42:55;100751.28;;;20.30;51.78
33625;BME280;19962;47.820;1.930;2023-08-06T11:45:25;100745.53;;;20.11;51.45
33625;BME280;19962;47.820;1.930;2023-08-06T11:47:52;100748.06;;;20.13;52.51
33625;BME280;19962;47.820;1.930;2023-08-06T11:50:23;100740.53;;;20.08;52.48
33625;BME280;19962;47.820;1.930;2023-08-06T11:52:56;100746.84;;;20.24;52.88
33625;BME280;19962;47.820;1.930;2023-08-06T11:55:24;100754.63;;;20.27;52.37
33625;BME280;19962;47.820;1.930;2023-08-06T11:57:51;100753.03;;;20.21;52.27
33625;BME280;19962;47.820;1.930;2023-08-06T12:00:17;100747.13;;;20.22;51.59
33625;BME280;19962;47.820;1.930;2023-08-06T12:02:46;100742.59;;;20.31;51.28
33625;BME280;19962;47.820;1.930;2023-08-06T12:05:19;100743.03;;;20.48;49.98
33625;BME280;19962;47.820;1.930;2023-08-06T12:07:54;100732.88;;;20.62;50.18
33625;BME280;19962;47.820;1.930;2023-08-06T12:10:21;100738.06;;;20.79;49.75
33625;BME280;19962;47.820;1.930;2023-08-06T12:12:48;100735.56;;;20.77;49.25
33625;BME280;19962;47.820;1.930;2023-08-06T12:15:16;100733.06;;;20.76;49.23
33625;BME280;19962;47.820;1.930;2023-08-06T12:17:42;100736.81;;;20.61;49.29
33625;BME280;19962;47.820;1.930;2023-08-06T12:20:09;100740.88;;;20.40;49.46
33625;BME280;19962;47.820;1.930;2023-08-06T12:22:36;100753.25;;;20.24;49.47
33625;BME280;19962;47.820;1.930;2023-08-06T12:25:05;100751.00;;;20.26;49.57
33625;BME280;19962;47.820;1.930;2023-08-06T12:27:40;100752.63;;;20.37;49.68
33625;BME280;19962;47.820;1.930;2023-08-06T12:30:07;100759.75;;;20.48;49.61
33625;BME280;19962;47.820;1.930;2023-08-06T12:32:34;100746.28;;;20.60;49.88
33625;BME280;19962;47.820;1.930;2023-08-06T12:35:00;100757.44;;;20.60;49.75
33625;BME280;19962;47.820;1.930;2023-08-06T12:37:27;100756.88;;;20.63;50.10
33625;BME280;19962;47.820;1.930;2023-08-06T12:39:53;100757.06;;;20.72;50.05
33625;BME280;19962;47.820;1.930;2023-08-06T12:42:20;100755.88;;;20.78;49.80
33625;BME280;19962;47.820;1.930;2023-08-06T12:44:48;100764.59;;;20.71;49.90
33625;BME280;19962;47.820;1.930;2023-08-06T12:47:15;100763.22;;;20.69;49.52
33625;BME280;19962;47.820;1.930;2023-08-06T12:49:41;100769.94;;;20.68;49.78
33625;BME280;19962;47.820;1.930;2023-08-06T12:52:07;100770.78;;;20.68;50.12
33625;BME280;19962;47.820;1.930;2023-08-06T12:54:35;100770.16;;;20.76;50.16
33625;BME280;19962;47.820;1.930;2023-08-06T12:57:05;100760.59;;;20.82;50.45